sensor_id;sensor_type;location;lat;lon;timestamp;P1;durP1;ratioP1;P2;durP2;ratioP2
5345;SDS011;2695;49.444;11.054;2023-03-04T00:00:04;18.13;;;10.80;;
5345;SDS011;2695;49.444;11.054;2023-03-04T00:02:34;19.93;;;11.53;;
5345;SDS011;2695;49.444;11.054;2023-03-04T00:05:02;19.33;;;11.27;;
5345;SDS011;2695;49.444;11.054;2023-03-04T00:07:34;18.33;;;10.80;;
5345;SDS011;2695;49.444;11.054;2023-03-04T00:10:02;18.43;;;10.23;;
5345;SDS011;2695;49.444;11.054;2023-03-04T00:12:31;17.83;;;10.10;;
5345;SDS011;2695;49.444;11.054;2023-03-04T00:14:59;23.67;;;9.87;;
5345;SDS011;2695;49.444;11.054;2023-03-04T00:17:27;15.20;;;9.23;;
5345;SDS011;2695;49.444;11.054;2023-03-04T00:19:56;20.97;;;10.07;;
5345;SDS011;2695;49.444;11.054;2023-03-04T00:22:24;18.47;;;9.60;;
5345;SDS011;2695;49.444;11.054;2023-03-04T00:24:53;19.30;;;9.80;;
5345;SDS011;2695;49.444;11.054;2023-03-04T00:27:21;19.43;;;10.47;;
5345;SDS011;2695;49.444;11.054;2023-03-04T00:29:49;21.20;;;10.80;;
5345;SDS011;2695;49.444;11.054;2023-03-04T00:32:17;17.50;;;9.77;;
5345;SDS011;2695;49.444;11.054;2023-03-04T00:34:45;15.90;;;9.30;;
5345;SDS011;2695;49.444;11.054;2023-03-04T00:37:13;15.43;;;10.00;;
5345;SDS011;2695;49.444;11.054;2023-03-04T00:39:41;16.43;;;10.03;;
5345;SDS011;2695;49.444;11.054;2023-03-04T00:42:11;17.80;;;9.60;;
5345;SDS011;2695;49.444;11.054;2023-03-04T00:44:39;18.67;;;9.23;;
5345;SDS011;2695;49.444;11.054;2023-03-04T00:47:07;15.20;;;8.53;;
5345;SDS011;2695;49.444;11.054;2023-03-04T00:49:35;14.83;;;8.83;;
5345;SDS011;2695;49.444;11.054;2023-03-04T00:52:03;16.07;;;9.83;;
5345;SDS011;2695;49.444;11.054;2023-03-04T00:54:31;15.77;;;8.47;;
5345;SDS011;2695;49.444;11.054;2023-03-04T00:57:00;22.50;;;9.80;;
5345;SDS011;2695;49.444;11.054;2023-03-04T00:59:29;14.67;;;8.10;;
5345;SDS011;2695;49.444;11.054;2023-03-04T01:01:57;16.30;;;9.47;;
5345;SDS011;2695;49.444;11.054;2023-03-04T01:04:25;14.43;;;8.13;;
5345;SDS011;2695;49.444;11.054;2023-03-04T01:06:53;12.57;;;8.00;;
5345;SDS011;2695;49.444;11.054;2023-03-04T01:09:21;18.40;;;9.03;;
5345;SDS011;2695;49.444;11.054;2023-03-04T01:11:49;14.53;;;8.03;;
5345;SDS011;2695;49.444;11.054;2023-03-04T01:14:17;16.27;;;8.20;;
5345;SDS011;2695;49.444;11.054;2023-03-04T01:16:47;18.30;;;9.27;;
5345;SDS011;2695;49.444;11.054;2023-03-04T01:19:15;17.70;;;8.93;;
5345;SDS011;2695;49.444;11.054;2023-03-04T01:21:44;10.80;;;7.10;;
5345;SDS011;2695;49.444;11.054;2023-03-04T01:24:12;13.27;;;8.73;;
5345;SDS011;2695;49.444;11.054;2023-03-04T01:26:40;14.07;;;7.63;;
5345;SDS011;2695;49.444;11.054;2023-03-04T01:29:08;14.43;;;7.80;;
5345;SDS011;2695;49.444;11.054;2023-03-04T01:31:36;13.20;;;7.90;;
5345;SDS011;2695;49.444;11.054;2023-03-04T01:34:05;14.13;;;8.70;;
5345;SDS011;2695;49.444;11.054;2023-03-04T01:36:35;15.50;;;8.87;;
5345;SDS011;2695;49.444;11.054;2023-03-04T01:39:03;14.50;;;8.63;;
5345;SDS011;2695;49.444;11.054;2023-03-04T01:41:31;18.53;;;8.60;;
5345;SDS011;2695;49.444;11.054;2023-03-04T01:43:59;19.03;;;8.50;;
5345;SDS011;2695;49.444;11.054;2023-03-04T01:46:28;14.10;;;8.97;;
5345;SDS011;2695;49.444;11.054;2023-03-04T01:48:57;14.47;;;8.27;;
5345;SDS011;2695;49.444;11.054;2023-03-04T01:51:27;19.63;;;8.90;;
5345;SDS011;2695;49.444;11.054;2023-03-04T01:53:55;12.57;;;7.90;;
5345;SDS011;2695;49.444;11.054;2023-03-04T01:56:25;13.90;;;7.43;;
5345;SDS011;2695;49.444;11.054;2023-03-04T01:59:05;15.17;;;7.20;;
5345;SDS011;2695;49.444;11.054;2023-03-04T02:01:36;12.37;;;7.53;;
5345;SDS011;2695;49.444;11.054;2023-03-04T02:04:04;11.10;;;7.20;;
5345;SDS011;2695;49.444;11.054;2023-03-04T02:06:35;12.03;;;8.13;;
5345;SDS011;2695;49.444;11.054;2023-03-04T02:09:05;10.67;;;6.50;;
5345;SDS011;2695;49.444;11.054;2023-03-04T02:11:33;18.60;;;10.27;;
5345;SDS011;2695;49.444;11.054;2023-03-04T02:14:04;11.80;;;7.37;;
5345;SDS011;2695;49.444;11.054;2023-03-04T02:16:32;14.00;;;6.80;;
5345;SDS011;2695;49.444;11.054;2023-03-04T02:19:01;12.90;;;7.93;;
5345;SDS011;2695;49.444;11.054;2023-03-04T02:21:31;9.77;;;5.87;;
5345;SDS011;2695;49.444;11.054;2023-03-04T02:24:04;10.10;;;6.37;;
5345;SDS011;2695;49.444;11.054;2023-03-04T02:26:41;11.20;;;7.33;;
5345;SDS011;2695;49.444;11.054;2023-03-04T02:29:12;19.57;;;7.97;;
5345;SDS011;2695;49.444;11.054;2023-03-04T02:31:42;11.90;;;7.23;;
5345;SDS011;2695;49.444;11.054;2023-03-04T02:34:12;10.93;;;6.40;;
5345;SDS011;2695;49.444;11.054;2023-03-04T02:36:43;11.93;;;7.40;;
5345;SDS011;2695;49.444;11.054;2023-03-04T02:39:21;10.90;;;7.27;;
5345;SDS011;2695;49.444;11.054;2023-03-04T02:41:53;12.17;;;7.03;;
5345;SDS011;2695;49.444;11.054;2023-03-04T02:44:22;12.73;;;7.50;;
5345;SDS011;2695;49.444;11.054;2023-03-04T02:46:52;14.57;;;8.30;;
5345;SDS011;2695;49.444;11.054;2023-03-04T02:49:21;15.07;;;8.20;;
5345;SDS011;2695;49.444;11.054;2023-03-04T02:51:50;14.20;;;7.97;;
5345;SDS011;2695;49.444;11.054;2023-03-04T02:54:20;12.90;;;6.90;;
5345;SDS011;2695;49.444;11.054;2023-03-04T02:56:50;14.40;;;7.83;;
5345;SDS011;2695;49.444;11.054;2023-03-04T02:59:21;12.23;;;7.53;;
5345;SDS011;2695;49.444;11.054;2023-03-04T03:01:50;12.43;;;8.00;;
5345;SDS011;2695;49.444;11.054;2023-03-04T03:04:18;13.40;;;8.30;;
5345;SDS011;2695;49.444;11.054;2023-03-04T03:06:47;12.60;;;6.70;;
5345;SDS011;2695;49.444;11.054;2023-03-04T03:09:15;12.77;;;7.40;;
5345;SDS011;2695;49.444;11.054;2023-03-04T03:11:43;12.93;;;8.27;;
5345;SDS011;2695;49.444;11.054;2023-03-04T03:14:11;17.60;;;7.43;;
5345;SDS011;2695;49.444;11.054;2023-03-04T03:16:41;18.00;;;8.50;;
5345;SDS011;2695;49.444;11.054;2023-03-04T03:19:09;14.03;;;7.70;;
5345;SDS011;2695;49.444;11.054;2023-03-04T03:21:37;13.33;;;8.57;;
5345;SDS011;2695;49.444;11.054;2023-03-04T03:24:05;11.63;;;7.80;;
5345;SDS011;2695;49.444;11.054;2023-03-04T03:26:34;14.30;;;8.17;;
5345;SDS011;2695;49.444;11.054;2023-03-04T03:29:02;23.87;;;7.87;;
5345;SDS011;2695;49.444;11.054;2023-03-04T03:31:30;13.00;;;7.73;;
5345;SDS011;2695;49.444;11.054;2023-03-04T03:34:01;15.07;;;8.50;;
5345;SDS011;2695;49.444;11.054;2023-03-04T03:36:29;12.17;;;7.70;;
5345;SDS011;2695;49.444;11.054;2023-03-04T03:38:57;13.43;;;7.97;;
5345;SDS011;2695;49.444;11.054;2023-03-04T03:41:25;16.33;;;8.53;;
5345;SDS011;2695;49.444;11.054;2023-03-04T03:43:53;14.53;;;8.33;;
5345;SDS011;2695;49.444;11.054;2023-03-04T03:46:22;14.40;;;8.47;;
5345;SDS011;2695;49.444;11.054;2023-03-04T03:48:50;17.30;;;9.70;;
5345;SDS011;2695;49.444;11.054;2023-03-04T03:51:19;15.17;;;9.00;;
5345;SDS011;2695;49.444;11.054;2023-03-04T03:53:47;16.00;;;10.03;;
5345;SDS011;2695;49.444;11.054;2023-03-04T03:56:15;19.00;;;9.40;;
5345;SDS011;2695;49.444;11.054;2023-03-04T03:58:43;19.23;;;10.90;;
5345;SDS011;2695;49.444;11.054;2023-03-04T04:01:11;16.10;;;10.37;;
5345;SDS011;2695;49.444;11.054;2023-03-04T04:03:39;18.00;;;10.03;;
5345;SDS011;2695;49.444;11.054;2023-03-04T04:06:08;15.80;;;9.70;;
5345;SDS011;2695;49.444;11.054;2023-03-04T04:08:37;17.07;;;9.80;;
5345;SDS011;2695;49.444;11.054;2023-03-04T04:11:05;19.87;;;10.90;;
5345;SDS011;2695;49.444;11.054;2023-03-04T04:13:35;16.70;;;8.87;;
5345;SDS011;2695;49.444;11.054;2023-03-04T04:16:05;20.03;;;9.13;;
5345;SDS011;2695;49.444;11.054;2023-03-04T04:18:33;15.70;;;9.50;;
5345;SDS011;2695;49.444;11.054;2023-03-04T04:21:02;13.10;;;8.10;;
5345;SDS011;2695;49.444;11.054;2023-03-04T04:23:30;15.67;;;9.60;;
5345;SDS011;2695;49.444;11.054;2023-03-04T04:26:00;13.40;;;8.37;;
5345;SDS011;2695;49.444;11.054;2023-03-04T04:28:28;15.37;;;8.93;;
5345;SDS011;2695;49.444;11.054;2023-03-04T04:30:56;15.03;;;9.17;;
5345;SDS011;2695;49.444;11.054;2023-03-04T04:33:24;16.97;;;9.37;;
5345;SDS011;2695;49.444;11.054;2023-03-04T04:35:52;14.63;;;8.63;;
5345;SDS011;2695;49.444;11.054;2023-03-04T04:38:20;14.63;;;9.23;;
5345;SDS011;2695;49.444;11.054;2023-03-04T04:40:49;13.60;;;8.43;;
5345;SDS011;2695;49.444;11.054;2023-03-04T04:43:19;13.13;;;9.50;;
5345;SDS011;2695;49.444;11.054;2023-03-04T04:45:47;16.23;;;9.50;;
5345;SDS011;2695;49.444;11.054;2023-03-04T04:48:15;14.33;;;8.83;;
5345;SDS011;2695;49.444;11.054;2023-03-04T04:50:43;16.83;;;8.77;;
5345;SDS011;2695;49.444;11.054;2023-03-04T04:53:11;17.30;;;8.97;;
5345;SDS011;2695;49.444;11.054;2023-03-04T04:55:39;15.60;;;9.00;;
5345;SDS011;2695;49.444;11.054;2023-03-04T04:58:07;17.73;;;10.43;;
5345;SDS011;2695;49.444;11.054;2023-03-04T05:00:37;14.77;;;7.53;;
5345;SDS011;2695;49.444;11.054;2023-03-04T05:03:05;20.67;;;10.60;;
5345;SDS011;2695;49.444;11.054;2023-03-04T05:05:33;22.10;;;10.30;;
5345;SDS011;2695;49.444;11.054;2023-03-04T05:08:01;14.60;;;9.33;;
5345;SDS011;2695;49.444;11.054;2023-03-04T05:10:29;16.10;;;9.30;;
5345;SDS011;2695;49.444;11.054;2023-03-04T05:12:57;13.80;;;9.13;;
5345;SDS011;2695;49.444;11.054;2023-03-04T05:15:25;19.40;;;9.73;;
5345;SDS011;2695;49.444;11.054;2023-03-04T05:17:55;17.17;;;9.30;;
5345;SDS011;2695;49.444;11.054;2023-03-04T05:20:23;17.93;;;9.70;;
5345;SDS011;2695;49.444;11.054;2023-03-04T05:22:52;17.13;;;9.13;;
5345;SDS011;2695;49.444;11.054;2023-03-04T05:25:20;16.87;;;9.70;;
5345;SDS011;2695;49.444;11.054;2023-03-04T05:27:48;20.10;;;10.90;;
5345;SDS011;2695;49.444;11.054;2023-03-04T05:30:17;18.40;;;9.63;;
5345;SDS011;2695;49.444;11.054;2023-03-04T05:32:45;16.50;;;8.87;;
5345;SDS011;2695;49.444;11.054;2023-03-04T05:35:14;15.27;;;9.13;;
5345;SDS011;2695;49.444;11.054;2023-03-04T05:37:42;14.47;;;9.10;;
5345;SDS011;2695;49.444;11.054;2023-03-04T05:40:11;16.87;;;10.20;;
5345;SDS011;2695;49.444;11.054;2023-03-04T05:42:39;16.53;;;9.50;;
5345;SDS011;2695;49.444;11.054;2023-03-04T05:45:07;14.03;;;8.97;;
5345;SDS011;2695;49.444;11.054;2023-03-04T05:47:36;17.00;;;9.27;;
5345;SDS011;2695;49.444;11.054;2023-03-04T05:50:04;15.33;;;10.23;;
5345;SDS011;2695;49.444;11.054;2023-03-04T05:52:34;19.03;;;9.77;;
5345;SDS011;2695;49.444;11.054;2023-03-04T05:55:02;15.13;;;8.80;;
5345;SDS011;2695;49.444;11.054;2023-03-04T05:57:31;16.10;;;8.43;;
5345;SDS011;2695;49.444;11.054;2023-03-04T05:59:59;15.50;;;9.17;;
5345;SDS011;2695;49.444;11.054;2023-03-04T06:02:27;17.40;;;10.07;;
5345;SDS011;2695;49.444;11.054;2023-03-04T06:04:55;14.70;;;8.73;;
5345;SDS011;2695;49.444;11.054;2023-03-04T06:07:23;14.60;;;8.40;;
5345;SDS011;2695;49.444;11.054;2023-03-04T06:09:52;21.83;;;9.97;;
5345;SDS011;2695;49.444;11.054;2023-03-04T06:12:20;17.13;;;9.07;;
5345;SDS011;2695;49.444;11.054;2023-03-04T06:14:48;16.43;;;9.00;;
5345;SDS011;2695;49.444;11.054;2023-03-04T06:17:16;26.60;;;11.43;;
5345;SDS011;2695;49.444;11.054;2023-03-04T06:19:44;19.23;;;9.43;;
5345;SDS011;2695;49.444;11.054;2023-03-04T06:22:12;19.43;;;10.33;;
5345;SDS011;2695;49.444;11.054;2023-03-04T06:24:40;22.40;;;11.47;;
5345;SDS011;2695;49.444;11.054;2023-03-04T06:27:10;16.40;;;10.10;;
5345;SDS011;2695;49.444;11.054;2023-03-04T06:29:38;22.63;;;10.80;;
5345;SDS011;2695;49.444;11.054;2023-03-04T06:32:06;18.40;;;10.87;;
5345;SDS011;2695;49.444;11.054;2023-03-04T06:34:34;22.07;;;10.40;;
5345;SDS011;2695;49.444;11.054;2023-03-04T06:37:02;20.63;;;10.10;;
5345;SDS011;2695;49.444;11.054;2023-03-04T06:39:31;18.37;;;10.13;;
5345;SDS011;2695;49.444;11.054;2023-03-04T06:41:59;23.43;;;10.53;;
5345;SDS011;2695;49.444;11.054;2023-03-04T06:44:29;17.13;;;9.33;;
5345;SDS011;2695;49.444;11.054;2023-03-04T06:46:57;19.83;;;10.00;;
5345;SDS011;2695;49.444;11.054;2023-03-04T06:49:25;21.40;;;9.87;;
5345;SDS011;2695;49.444;11.054;2023-03-04T06:51:53;15.60;;;8.80;;
5345;SDS011;2695;49.444;11.054;2023-03-04T06:54:21;23.50;;;11.20;;
5345;SDS011;2695;49.444;11.054;2023-03-04T06:56:49;19.07;;;10.33;;
5345;SDS011;2695;49.444;11.054;2023-03-04T06:59:17;19.93;;;10.00;;
5345;SDS011;2695;49.444;11.054;2023-03-04T07:01:47;18.20;;;9.47;;
5345;SDS011;2695;49.444;11.054;2023-03-04T07:04:15;19.50;;;8.97;;
5345;SDS011;2695;49.444;11.054;2023-03-04T07:06:43;18.33;;;9.63;;
5345;SDS011;2695;49.444;11.054;2023-03-04T07:09:11;20.70;;;9.47;;
5345;SDS011;2695;49.444;11.054;2023-03-04T07:11:39;17.87;;;9.33;;
5345;SDS011;2695;49.444;11.054;2023-03-04T07:14:07;16.30;;;8.93;;
5345;SDS011;2695;49.444;11.054;2023-03-04T07:16:35;16.97;;;9.63;;
5345;SDS011;2695;49.444;11.054;2023-03-04T07:19:05;17.93;;;10.10;;
5345;SDS011;2695;49.444;11.054;2023-03-04T07:21:33;19.97;;;10.67;;
5345;SDS011;2695;49.444;11.054;2023-03-04T07:24:01;22.20;;;11.00;;
5345;SDS011;2695;49.444;11.054;2023-03-04T07:26:29;16.43;;;8.30;;
5345;SDS011;2695;49.444;11.054;2023-03-04T07:28:57;20.10;;;10.07;;
5345;SDS011;2695;49.444;11.054;2023-03-04T07:31:27;18.10;;;9.67;;
5345;SDS011;2695;49.444;11.054;2023-03-04T07:33:57;24.30;;;10.43;;
5345;SDS011;2695;49.444;11.054;2023-03-04T07:36:28;24.27;;;12.60;;
5345;SDS011;2695;49.444;11.054;2023-03-04T07:38:57;25.73;;;10.33;;
5345;SDS011;2695;49.444;11.054;2023-03-04T07:41:26;17.33;;;10.57;;
5345;SDS011;2695;49.444;11.054;2023-03-04T07:43:55;23.07;;;11.63;;
5345;SDS011;2695;49.444;11.054;2023-03-04T07:46:24;22.37;;;10.63;;
5345;SDS011;2695;49.444;11.054;2023-03-04T07:48:53;20.87;;;10.90;;
5345;SDS011;2695;49.444;11.054;2023-03-04T07:51:23;18.90;;;10.37;;
5345;SDS011;2695;49.444;11.054;2023-03-04T07:53:55;23.83;;;11.30;;
5345;SDS011;2695;49.444;11.054;2023-03-04T07:56:25;16.50;;;9.40;;
5345;SDS011;2695;49.444;11.054;2023-03-04T07:58:55;20.00;;;10.83;;
5345;SDS011;2695;49.444;11.054;2023-03-04T08:01:24;19.83;;;10.50;;
5345;SDS011;2695;49.444;11.054;2023-03-04T08:03:54;18.87;;;10.80;;
5345;SDS011;2695;49.444;11.054;2023-03-04T08:06:23;19.40;;;9.80;;
5345;SDS011;2695;49.444;11.054;2023-03-04T08:08:56;19.40;;;10.63;;
5345;SDS011;2695;49.444;11.054;2023-03-04T08:11:26;20.10;;;11.70;;
5345;SDS011;2695;49.444;11.054;2023-03-04T08:13:55;20.87;;;11.20;;
5345;SDS011;2695;49.444;11.054;2023-03-04T08:16:24;15.50;;;9.53;;
5345;SDS011;2695;49.444;11.054;2023-03-04T08:18:53;21.13;;;9.83;;
5345;SDS011;2695;49.444;11.054;2023-03-04T08:21:23;16.00;;;9.33;;
5345;SDS011;2695;49.444;11.054;2023-03-04T08:23:53;20.30;;;10.17;;
5345;SDS011;2695;49.444;11.054;2023-03-04T08:26:26;18.77;;;10.03;;
5345;SDS011;2695;49.444;11.054;2023-03-04T08:28:56;17.20;;;9.20;;
5345;SDS011;2695;49.444;11.054;2023-03-04T08:31:24;21.77;;;9.93;;
5345;SDS011;2695;49.444;11.054;2023-03-04T08:33:52;20.30;;;11.03;;
5345;SDS011;2695;49.444;11.054;2023-03-04T08:36:21;18.13;;;10.80;;
5345;SDS011;2695;49.444;11.054;2023-03-04T08:38:50;19.00;;;10.07;;
5345;SDS011;2695;49.444;11.054;2023-03-04T08:41:18;16.83;;;9.50;;
5345;SDS011;2695;49.444;11.054;2023-03-04T08:43:47;19.27;;;10.40;;
5345;SDS011;2695;49.444;11.054;2023-03-04T08:46:16;15.67;;;9.60;;
5345;SDS011;2695;49.444;11.054;2023-03-04T08:48:44;17.13;;;10.03;;
5345;SDS011;2695;49.444;11.054;2023-03-04T08:51:13;20.40;;;9.73;;
5345;SDS011;2695;49.444;11.054;2023-03-04T08:53:42;17.10;;;10.43;;
5345;SDS011;2695;49.444;11.054;2023-03-04T08:56:11;20.30;;;9.67;;
5345;SDS011;2695;49.444;11.054;2023-03-04T08:58:40;19.70;;;10.30;;
5345;SDS011;2695;49.444;11.054;2023-03-04T09:01:11;18.87;;;10.37;;
5345;SDS011;2695;49.444;11.054;2023-03-04T09:03:40;16.27;;;10.17;;
5345;SDS011;2695;49.444;11.054;2023-03-04T09:06:10;21.70;;;11.40;;
5345;SDS011;2695;49.444;11.054;2023-03-04T09:08:40;20.07;;;10.23;;
5345;SDS011;2695;49.444;11.054;2023-03-04T09:11:09;18.00;;;10.53;;
5345;SDS011;2695;49.444;11.054;2023-03-04T09:13:38;18.10;;;10.43;;
5345;SDS011;2695;49.444;11.054;2023-03-04T09:16:08;19.27;;;10.93;;
5345;SDS011;2695;49.444;11.054;2023-03-04T09:18:42;17.97;;;10.67;;
5345;SDS011;2695;49.444;11.054;2023-03-04T09:21:15;20.60;;;11.00;;
5345;SDS011;2695;49.444;11.054;2023-03-04T09:23:43;17.57;;;10.70;;
5345;SDS011;2695;49.444;11.054;2023-03-04T09:26:12;21.47;;;11.50;;
5345;SDS011;2695;49.444;11.054;2023-03-04T09:28:42;21.20;;;11.23;;
5345;SDS011;2695;49.444;11.054;2023-03-04T09:31:11;19.93;;;11.37;;
5345;SDS011;2695;49.444;11.054;2023-03-04T09:33:42;25.07;;;11.23;;
5345;SDS011;2695;49.444;11.054;2023-03-04T09:36:10;18.60;;;11.43;;
5345;SDS011;2695;49.444;11.054;2023-03-04T09:38:39;24.23;;;10.87;;
5345;SDS011;2695;49.444;11.054;2023-03-04T09:41:09;21.20;;;11.20;;
5345;SDS011;2695;49.444;11.054;2023-03-04T09:43:42;17.00;;;10.50;;
5345;SDS011;2695;49.444;11.054;2023-03-04T09:46:12;22.93;;;11.23;;
5345;SDS011;2695;49.444;11.054;2023-03-04T09:48:44;17.90;;;9.90;;
5345;SDS011;2695;49.444;11.054;2023-03-04T09:51:18;25.23;;;12.33;;
5345;SDS011;2695;49.444;11.054;2023-03-04T09:53:53;16.70;;;10.13;;
5345;SDS011;2695;49.444;11.054;2023-03-04T09:56:32;22.53;;;10.13;;
5345;SDS011;2695;49.444;11.054;2023-03-04T09:59:05;15.83;;;10.00;;
5345;SDS011;2695;49.444;11.054;2023-03-04T10:01:41;20.80;;;11.27;;
5345;SDS011;2695;49.444;11.054;2023-03-04T10:04:28;18.30;;;10.50;;
5345;SDS011;2695;49.444;11.054;2023-03-04T10:07:00;19.30;;;10.43;;
5345;SDS011;2695;49.444;11.054;2023-03-04T10:09:31;17.40;;;10.70;;
5345;SDS011;2695;49.444;11.054;2023-03-04T10:12:11;16.50;;;9.80;;
5345;SDS011;2695;49.444;11.054;2023-03-04T10:14:42;18.23;;;10.40;;
5345;SDS011;2695;49.444;11.054;2023-03-04T10:17:15;21.47;;;11.47;;
5345;SDS011;2695;49.444;11.054;2023-03-04T10:19:57;20.60;;;11.63;;
5345;SDS011;2695;49.444;11.054;2023-03-04T10:22:29;21.97;;;9.97;;
5345;SDS011;2695;49.444;11.054;2023-03-04T10:25:06;14.33;;;9.93;;
5345;SDS011;2695;49.444;11.054;2023-03-04T10:27:42;18.20;;;11.43;;
5345;SDS011;2695;49.444;11.054;2023-03-04T10:30:17;16.73;;;9.43;;
5345;SDS011;2695;49.444;11.054;2023-03-04T10:32:49;18.40;;;11.90;;
5345;SDS011;2695;49.444;11.054;2023-03-04T10:35:19;12.60;;;9.53;;
5345;SDS011;2695;49.444;11.054;2023-03-04T10:37:52;15.73;;;10.57;;
5345;SDS011;2695;49.444;11.054;2023-03-04T10:40:21;22.90;;;10.33;;
5345;SDS011;2695;49.444;11.054;2023-03-04T10:42:50;22.70;;;11.10;;
5345;SDS011;2695;49.444;11.054;2023-03-04T10:45:28;20.33;;;10.00;;
5345;SDS011;2695;49.444;11.054;2023-03-04T10:48:00;19.97;;;10.20;;
5345;SDS011;2695;49.444;11.054;2023-03-04T10:50:30;19.83;;;9.63;;
5345;SDS011;2695;49.444;11.054;2023-03-04T10:52:58;13.83;;;9.43;;
5345;SDS011;2695;49.444;11.054;2023-03-04T10:55:27;14.90;;;9.03;;
5345;SDS011;2695;49.444;11.054;2023-03-04T10:58:00;18.63;;;11.20;;
5345;SDS011;2695;49.444;11.054;2023-03-04T11:00:30;14.77;;;9.23;;
5345;SDS011;2695;49.444;11.054;2023-03-04T11:03:21;17.40;;;9.90;;
5345;SDS011;2695;49.444;11.054;2023-03-04T11:06:08;30.53;;;10.00;;
5345;SDS011;2695;49.444;11.054;2023-03-04T11:08:42;13.03;;;9.47;;
5345;SDS011;2695;49.444;11.054;2023-03-04T11:11:20;27.13;;;10.20;;
5345;SDS011;2695;49.444;11.054;2023-03-04T11:13:54;14.67;;;9.07;;
5345;SDS011;2695;49.444;11.054;2023-03-04T11:16:26;20.33;;;10.23;;
5345;SDS011;2695;49.444;11.054;2023-03-04T11:18:57;14.73;;;9.43;;
5345;SDS011;2695;49.444;11.054;2023-03-04T11:21:30;15.80;;;9.27;;
5345;SDS011;2695;49.444;11.054;2023-03-04T11:24:07;14.63;;;9.63;;
5345;SDS011;2695;49.444;11.054;2023-03-04T11:26:55;16.80;;;9.00;;
5345;SDS011;2695;49.444;11.054;2023-03-04T11:29:29;14.90;;;10.30;;
5345;SDS011;2695;49.444;11.054;2023-03-04T11:32:03;15.20;;;9.13;;
5345;SDS011;2695;49.444;11.054;2023-03-04T11:34:37;14.03;;;9.80;;
5345;SDS011;2695;49.444;11.054;2023-03-04T11:37:13;17.40;;;9.70;;
5345;SDS011;2695;49.444;11.054;2023-03-04T11:39:49;18.10;;;8.73;;
5345;SDS011;2695;49.444;11.054;2023-03-04T11:42:23;13.87;;;9.00;;
5345;SDS011;2695;49.444;11.054;2023-03-04T11:45:01;20.83;;;9.97;;
5345;SDS011;2695;49.444;11.054;2023-03-04T11:50:28;19.43;;;8.07;;
5345;SDS011;2695;49.444;11.054;2023-03-04T11:53:18;13.67;;;8.00;;
5345;SDS011;2695;49.444;11.054;2023-03-04T11:55:56;16.67;;;8.97;;
5345;SDS011;2695;49.444;11.054;2023-03-04T12:01:58;22.33;;;8.90;;
5345;SDS011;2695;49.444;11.054;2023-03-04T12:04:47;18.37;;;10.50;;
5345;SDS011;2695;49.444;11.054;2023-03-04T12:10:43;15.27;;;8.90;;
5345;SDS011;2695;49.444;11.054;2023-03-04T12:13:29;19.20;;;11.17;;
5345;SDS011;2695;49.444;11.054;2023-03-04T12:16:38;16.23;;;9.67;;
5345;SDS011;2695;49.444;11.054;2023-03-04T12:19:29;16.33;;;10.77;;
5345;SDS011;2695;49.444;11.054;2023-03-04T12:22:07;13.40;;;8.60;;
5345;SDS011;2695;49.444;11.054;2023-03-04T12:25:08;12.83;;;8.60;;
5345;SDS011;2695;49.444;11.054;2023-03-04T12:27:55;14.00;;;9.90;;
5345;SDS011;2695;49.444;11.054;2023-03-04T12:30:39;19.97;;;9.90;;
5345;SDS011;2695;49.444;11.054;2023-03-04T12:33:18;15.93;;;9.80;;
5345;SDS011;2695;49.444;11.054;2023-03-04T12:35:58;16.90;;;10.50;;
5345;SDS011;2695;49.444;11.054;2023-03-04T12:38:53;22.53;;;11.10;;
5345;SDS011;2695;49.444;11.054;2023-03-04T12:41:33;21.27;;;11.10;;
5345;SDS011;2695;49.444;11.054;2023-03-04T12:44:14;19.53;;;10.07;;
5345;SDS011;2695;49.444;11.054;2023-03-04T12:46:49;15.20;;;9.20;;
5345;SDS011;2695;49.444;11.054;2023-03-04T12:52:24;15.50;;;8.97;;
5345;SDS011;2695;49.444;11.054;2023-03-04T12:55:01;19.63;;;9.30;;
5345;SDS011;2695;49.444;11.054;2023-03-04T12:57:34;15.83;;;8.37;;
5345;SDS011;2695;49.444;11.054;2023-03-04T13:00:07;14.77;;;8.50;;
5345;SDS011;2695;49.444;11.054;2023-03-04T13:05:41;17.57;;;9.50;;
5345;SDS011;2695;49.444;11.054;2023-03-04T13:08:19;18.03;;;8.87;;
5345;SDS011;2695;49.444;11.054;2023-03-04T13:10:59;19.67;;;9.27;;
5345;SDS011;2695;49.444;11.054;2023-03-04T13:13:32;19.97;;;9.03;;
5345;SDS011;2695;49.444;11.054;2023-03-04T13:18:58;16.63;;;8.17;;
5345;SDS011;2695;49.444;11.054;2023-03-04T13:21:27;18.67;;;9.57;;
5345;SDS011;2695;49.444;11.054;2023-03-04T13:24:00;13.23;;;8.80;;
5345;SDS011;2695;49.444;11.054;2023-03-04T13:39:31;19.60;;;8.20;;
5345;SDS011;2695;49.444;11.054;2023-03-04T13:42:00;15.43;;;8.83;;
5345;SDS011;2695;49.444;11.054;2023-03-04T13:53:29;17.80;;;9.00;;
5345;SDS011;2695;49.444;11.054;2023-03-04T13:56:10;18.00;;;8.60;;
5345;SDS011;2695;49.444;11.054;2023-03-04T13:58:47;21.57;;;10.03;;
5345;SDS011;2695;49.444;11.054;2023-03-04T14:01:22;14.80;;;9.00;;
5345;SDS011;2695;49.444;11.054;2023-03-04T14:03:53;14.80;;;9.00;;
5345;SDS011;2695;49.444;11.054;2023-03-04T14:06:24;16.87;;;9.43;;
5345;SDS011;2695;49.444;11.054;2023-03-04T14:08:54;14.70;;;9.10;;
5345;SDS011;2695;49.444;11.054;2023-03-04T14:11:25;21.40;;;9.97;;
5345;SDS011;2695;49.444;11.054;2023-03-04T14:13:57;17.77;;;9.73;;
5345;SDS011;2695;49.444;11.054;2023-03-04T14:16:30;15.57;;;8.70;;
5345;SDS011;2695;49.444;11.054;2023-03-04T14:19:02;13.73;;;8.53;;
5345;SDS011;2695;49.444;11.054;2023-03-04T14:21:33;18.03;;;9.13;;
5345;SDS011;2695;49.444;11.054;2023-03-04T14:24:03;16.50;;;9.67;;
5345;SDS011;2695;49.444;11.054;2023-03-04T14:26:33;18.83;;;9.37;;
5345;SDS011;2695;49.444;11.054;2023-03-04T14:29:01;24.13;;;10.07;;
5345;SDS011;2695;49.444;11.054;2023-03-04T14:31:30;22.07;;;10.40;;
5345;SDS011;2695;49.444;11.054;2023-03-04T14:34:02;19.80;;;8.60;;
5345;SDS011;2695;49.444;11.054;2023-03-04T14:36:31;15.40;;;9.83;;
5345;SDS011;2695;49.444;11.054;2023-03-04T14:39:03;15.70;;;8.90;;
5345;SDS011;2695;49.444;11.054;2023-03-04T14:41:33;20.83;;;9.73;;
5345;SDS011;2695;49.444;11.054;2023-03-04T14:44:06;18.63;;;9.10;;
5345;SDS011;2695;49.444;11.054;2023-03-04T14:46:41;14.67;;;9.23;;
5345;SDS011;2695;49.444;11.054;2023-03-04T14:49:32;15.70;;;9.00;;
5345;SDS011;2695;49.444;11.054;2023-03-04T14:52:03;15.03;;;8.10;;
5345;SDS011;2695;49.444;11.054;2023-03-04T14:54:36;17.23;;;8.20;;
5345;SDS011;2695;49.444;11.054;2023-03-04T14:57:21;14.03;;;7.60;;
5345;SDS011;2695;49.444;11.054;2023-03-04T14:59:52;19.20;;;9.63;;
5345;SDS011;2695;49.444;11.054;2023-03-04T15:02:24;13.33;;;8.00;;
5345;SDS011;2695;49.444;11.054;2023-03-04T15:04:57;13.80;;;8.70;;
5345;SDS011;2695;49.444;11.054;2023-03-04T15:07:31;16.27;;;9.40;;
5345;SDS011;2695;49.444;11.054;2023-03-04T15:10:02;23.00;;;9.93;;
5345;SDS011;2695;49.444;11.054;2023-03-04T15:12:33;26.20;;;9.70;;
5345;SDS011;2695;49.444;11.054;2023-03-04T15:15:03;18.80;;;8.77;;
5345;SDS011;2695;49.444;11.054;2023-03-04T15:17:56;18.43;;;7.47;;
5345;SDS011;2695;49.444;11.054;2023-03-04T15:20:25;13.43;;;7.60;;
5345;SDS011;2695;49.444;11.054;2023-03-04T15:22:57;18.37;;;8.43;;
5345;SDS011;2695;49.444;11.054;2023-03-04T15:25:27;20.63;;;11.00;;
5345;SDS011;2695;49.444;11.054;2023-03-04T15:27:57;18.53;;;8.70;;
5345;SDS011;2695;49.444;11.054;2023-03-04T15:30:29;19.27;;;7.40;;
5345;SDS011;2695;49.444;11.054;2023-03-04T15:32:59;22.10;;;8.33;;
5345;SDS011;2695;49.444;11.054;2023-03-04T15:35:28;17.50;;;9.87;;
5345;SDS011;2695;49.444;11.054;2023-03-04T15:37:59;13.63;;;7.77;;
5345;SDS011;2695;49.444;11.054;2023-03-04T15:40:28;16.37;;;8.63;;
5345;SDS011;2695;49.444;11.054;2023-03-04T15:42:59;15.30;;;9.00;;
5345;SDS011;2695;49.444;11.054;2023-03-04T15:45:29;20.10;;;10.60;;